createdAt,value
2018-02-10T00:02:17.094Z,2.65
2018-02-10T00:04:43.062Z,2.62
2018-02-10T00:07:09.016Z,2.92
2018-02-10T00:09:34.954Z,2.91
2018-02-10T00:12:00.880Z,2.92
2018-02-10T00:14:26.824Z,2.88
2018-02-10T00:16:52.750Z,2.97
2018-02-10T00:19:18.670Z,3.03
2018-02-10T00:21:44.630Z,3.00
2018-02-10T00:24:10.564Z,3.05
2018-02-10T00:26:36.492Z,2.94
2018-02-10T00:29:02.440Z,3.05
2018-02-10T00:31:28.393Z,3.26
2018-02-10T00:33:54.337Z,3.34
2018-02-10T00:36:20.322Z,3.34
2018-02-10T00:38:46.250Z,3.30
2018-02-10T00:41:12.182Z,3.38
2018-02-10T00:43:38.114Z,3.46
2018-02-10T00:46:04.070Z,3.29
2018-02-10T00:48:30.012Z,3.07
2018-02-10T00:50:56.014Z,2.95
2018-02-10T00:53:21.964Z,3.14
2018-02-10T00:55:47.894Z,2.86
2018-02-10T00:58:13.839Z,2.85
2018-02-10T01:00:39.783Z,2.84
2018-02-10T01:03:05.740Z,2.84
2018-02-10T01:05:31.660Z,2.70
2018-02-10T01:07:57.582Z,2.69
2018-02-10T01:10:23.520Z,2.84
2018-02-10T01:12:49.450Z,2.73
2018-02-10T01:15:15.374Z,2.67
2018-02-10T01:20:13.732Z,2.71
2018-02-10T01:22:39.685Z,2.44
2018-02-10T01:25:05.607Z,2.46
2018-02-10T01:27:31.599Z,2.61
2018-02-10T01:29:57.551Z,2.71
2018-02-10T01:32:23.490Z,2.57
2018-02-10T01:34:49.411Z,2.93
2018-02-10T01:37:15.401Z,2.33
2018-02-10T01:39:41.321Z,2.63
2018-02-10T01:42:07.255Z,2.59
2018-02-10T01:44:33.186Z,2.61
2018-02-10T01:46:59.101Z,2.52
2018-02-10T01:49:25.027Z,2.57
2018-02-10T01:51:50.949Z,2.86
2018-02-10T01:54:16.880Z,2.99
2018-02-10T01:56:42.808Z,2.59
2018-02-10T01:59:08.748Z,2.65
2018-02-10T02:01:34.681Z,3.05
2018-02-10T02:04:00.605Z,2.75
2018-02-10T02:06:26.525Z,2.33
2018-02-10T02:08:52.448Z,2.55
2018-02-10T02:11:18.369Z,2.85
2018-02-10T02:13:44.290Z,2.74
2018-02-10T02:16:10.211Z,3.08
2018-02-10T02:18:36.126Z,2.85
2018-02-10T02:21:02.055Z,2.36
2018-02-10T02:23:27.997Z,2.80
2018-02-10T02:25:53.923Z,2.60
2018-02-10T02:28:19.865Z,2.72
2018-02-10T02:30:45.787Z,2.68
2018-02-10T02:33:11.713Z,2.53
2018-02-10T02:35:37.639Z,2.81
2018-02-10T02:38:03.581Z,2.53
2018-02-10T02:40:29.524Z,2.39
2018-02-10T02:42:55.465Z,2.45
2018-02-10T02:45:21.391Z,2.58
2018-02-10T02:47:47.343Z,2.57
2018-02-10T02:50:13.293Z,2.42
2018-02-10T02:52:39.241Z,2.42
2018-02-10T02:55:05.179Z,2.87
2018-02-10T02:57:31.581Z,2.78
2018-02-10T02:59:57.536Z,2.47
2018-02-10T03:02:23.501Z,3.35
2018-02-10T03:04:49.421Z,3.33
2018-02-10T03:07:15.345Z,3.61
2018-02-10T03:09:41.294Z,2.93
2018-02-10T03:12:07.221Z,2.70
2018-02-10T03:17:05.526Z,2.83
2018-02-10T03:19:31.465Z,2.78
2018-02-10T03:21:57.383Z,3.04
2018-02-10T03:24:25.726Z,3.28
2018-02-10T03:26:51.753Z,3.11
2018-02-10T03:29:17.674Z,2.59
2018-02-10T03:31:43.623Z,2.55
2018-02-10T03:34:09.556Z,3.15
2018-02-10T03:36:35.484Z,3.35
2018-02-10T03:39:01.406Z,3.31
2018-02-10T03:41:27.750Z,2.43
2018-02-10T03:43:53.674Z,2.89
2018-02-10T03:46:19.622Z,3.32
2018-02-10T03:48:47.772Z,3.09
2018-02-10T03:51:13.850Z,2.68
2018-02-10T03:53:39.820Z,2.44
2018-02-10T03:56:05.734Z,2.49
2018-02-10T03:58:31.670Z,3.27
2018-02-10T04:00:57.592Z,3.34
2018-02-10T04:03:23.508Z,3.19
2018-02-10T04:05:49.441Z,2.66
2018-02-10T04:08:15.375Z,3.41
2018-02-10T04:10:41.299Z,3.30
2018-02-10T04:13:07.250Z,2.76
2018-02-10T04:15:33.194Z,2.81
2018-02-10T04:17:59.121Z,2.78
2018-02-10T04:20:25.045Z,3.26
2018-02-10T04:22:50.992Z,3.38
2018-02-10T04:25:16.915Z,3.53
2018-02-10T04:27:42.845Z,3.04
2018-02-10T04:30:08.768Z,3.08
2018-02-10T04:32:34.731Z,3.03
2018-02-10T04:35:00.679Z,3.23
2018-02-10T04:37:26.607Z,3.20
2018-02-10T04:39:52.539Z,3.05
2018-02-10T04:42:18.473Z,2.86
2018-02-10T04:44:44.396Z,2.98
2018-02-10T04:47:10.327Z,3.18
2018-02-10T04:49:36.497Z,3.15
2018-02-10T04:52:02.853Z,2.93
2018-02-10T04:54:28.797Z,2.77
2018-02-10T04:56:54.741Z,3.01
2018-02-10T04:59:20.671Z,3.20
2018-02-10T05:01:46.595Z,3.00
2018-02-10T05:04:12.543Z,3.21
2018-02-10T05:06:38.479Z,3.06
2018-02-10T05:09:04.401Z,3.15
2018-02-10T05:11:30.328Z,2.84
2018-02-10T05:13:56.245Z,2.73
2018-02-10T05:16:22.197Z,2.75
2018-02-10T05:18:48.119Z,2.99
2018-02-10T05:21:14.045Z,2.72
2018-02-10T05:23:39.977Z,3.07
2018-02-10T05:26:05.943Z,2.90
2018-02-10T05:28:31.869Z,2.74
2018-02-10T05:30:57.790Z,2.92
2018-02-10T05:33:23.706Z,3.15
2018-02-10T05:35:49.634Z,3.26
2018-02-10T05:38:15.601Z,2.75
2018-02-10T05:40:41.568Z,2.68
2018-02-10T05:43:07.510Z,2.79
2018-02-10T05:45:33.426Z,2.86
2018-02-10T05:47:59.371Z,3.12
2018-02-10T05:50:25.305Z,2.92
2018-02-10T05:52:51.226Z,3.14
2018-02-10T05:55:17.152Z,3.26
2018-02-10T05:57:43.078Z,3.08
2018-02-10T06:00:09.012Z,3.21
2018-02-10T06:02:34.930Z,3.32
2018-02-10T06:05:00.894Z,3.34
2018-02-10T06:07:26.825Z,3.19
2018-02-10T06:09:52.749Z,3.59
2018-02-10T06:12:18.669Z,3.45
2018-02-10T06:14:44.607Z,3.09
2018-02-10T06:17:10.530Z,2.98
2018-02-10T06:19:36.458Z,2.67
2018-02-10T06:22:02.394Z,3.04
2018-02-10T06:24:28.346Z,3.35
2018-02-10T06:26:54.331Z,3.45
2018-02-10T06:29:20.336Z,3.22
2018-02-10T06:31:46.282Z,3.01
2018-02-10T06:34:13.050Z,3.00
2018-02-10T06:36:39.256Z,3.19
2018-02-10T06:39:05.206Z,3.32
2018-02-10T06:41:31.126Z,3.08
2018-02-10T06:43:57.062Z,3.05
2018-02-10T06:46:22.983Z,3.07
2018-02-10T06:48:48.902Z,3.13
2018-02-10T06:51:14.828Z,2.87
2018-02-10T06:53:40.782Z,3.48
2018-02-10T06:56:06.764Z,3.28
2018-02-10T06:58:32.716Z,2.83
2018-02-10T07:00:58.660Z,2.43
2018-02-10T07:03:24.605Z,2.96
2018-02-10T07:05:50.534Z,3.26
2018-02-10T07:08:16.707Z,3.29
2018-02-10T07:10:42.622Z,3.04
2018-02-10T07:13:08.583Z,2.67
2018-02-10T07:15:34.494Z,3.55
2018-02-10T07:18:00.430Z,3.03
2018-02-10T07:20:26.467Z,2.89
2018-02-10T07:22:52.408Z,2.85
2018-02-10T07:25:18.326Z,2.94
2018-02-10T07:27:44.288Z,3.21
2018-02-10T07:30:10.210Z,3.00
2018-02-10T07:32:36.154Z,2.95
2018-02-10T07:35:02.090Z,2.90
2018-02-10T07:37:28.030Z,3.75
2018-02-10T07:39:53.938Z,3.00
2018-02-10T07:42:19.902Z,3.29
2018-02-10T07:44:45.886Z,3.51
2018-02-10T07:47:11.814Z,3.38
2018-02-10T07:49:37.748Z,3.04
2018-02-10T07:52:03.690Z,3.43
2018-02-10T07:54:29.626Z,3.40
2018-02-10T07:56:55.558Z,3.27
2018-02-10T07:59:21.494Z,2.94
2018-02-10T08:01:47.449Z,2.85
2018-02-10T08:04:13.382Z,3.13
2018-02-10T08:06:39.386Z,3.42
2018-02-10T08:09:05.318Z,3.72
2018-02-10T08:11:31.238Z,4.36
2018-02-10T08:13:57.176Z,4.39
2018-02-10T08:16:24.210Z,4.31
2018-02-10T08:18:50.168Z,3.72
2018-02-10T08:21:16.110Z,4.33
2018-02-10T08:23:42.068Z,3.62
2018-02-10T08:26:08.078Z,3.57
2018-02-10T08:28:33.998Z,3.60
2018-02-10T08:30:59.943Z,4.12
2018-02-10T08:33:25.954Z,4.63
2018-02-10T08:35:51.882Z,4.18
2018-02-10T08:38:17.840Z,4.21
2018-02-10T08:40:43.803Z,4.26
2018-02-10T08:43:09.762Z,4.35
2018-02-10T08:45:35.814Z,4.15
2018-02-10T08:48:01.763Z,4.29
2018-02-10T08:50:27.690Z,4.26
2018-02-10T08:52:53.624Z,4.33
2018-02-10T08:55:19.621Z,4.46
2018-02-10T08:57:45.498Z,4.78
2018-02-10T09:00:11.450Z,4.32
2018-02-10T09:02:37.386Z,4.54
2018-02-10T09:05:03.309Z,4.77
2018-02-10T09:07:29.240Z,4.30
2018-02-10T09:09:55.240Z,4.47
2018-02-10T09:12:21.122Z,4.21
2018-02-10T09:14:47.066Z,4.06
2018-02-10T09:17:13.035Z,4.08
2018-02-10T09:19:38.992Z,3.87
2018-02-10T09:22:04.926Z,4.01
2018-02-10T09:24:30.921Z,4.05
2018-02-10T09:26:56.834Z,4.10
2018-02-10T09:29:22.835Z,4.73
2018-02-10T09:31:48.769Z,4.50
2018-02-10T09:34:14.825Z,4.47
2018-02-10T09:36:40.808Z,4.48
2018-02-10T09:39:06.761Z,4.32
2018-02-10T09:41:32.806Z,4.50
2018-02-10T09:43:58.785Z,4.60
2018-02-10T09:46:24.746Z,4.71
2018-02-10T09:48:50.774Z,4.78
2018-02-10T09:51:16.709Z,4.82
2018-02-10T09:53:42.728Z,4.58
2018-02-10T09:56:08.687Z,5.13
2018-02-10T09:58:34.629Z,4.92
2018-02-10T10:01:00.558Z,4.85
2018-02-10T10:03:26.516Z,4.92
2018-02-10T10:05:52.430Z,4.99
2018-02-10T10:08:18.381Z,4.93
2018-02-10T10:10:44.324Z,5.07
2018-02-10T10:13:10.280Z,5.09
2018-02-10T10:15:36.219Z,5.34
2018-02-10T10:18:02.187Z,5.05
2018-02-10T10:20:28.107Z,5.29
2018-02-10T10:22:54.041Z,5.18
2018-02-10T10:25:19.975Z,5.26
2018-02-10T10:27:45.910Z,5.28
2018-02-10T10:30:11.951Z,5.22
2018-02-10T10:32:38.107Z,5.15
2018-02-10T10:35:04.111Z,5.20
2018-02-10T10:37:30.041Z,5.43
2018-02-10T10:39:56.079Z,5.17
2018-02-10T10:42:22.009Z,5.14
2018-02-10T10:44:48.160Z,5.40
2018-02-10T10:47:14.094Z,5.24
2018-02-10T10:49:41.071Z,5.07
2018-02-10T10:52:07.011Z,5.26
2018-02-10T10:54:33.005Z,5.38
2018-02-10T10:56:59.077Z,5.55
2018-02-10T10:59:25.059Z,5.43
2018-02-10T11:01:51.099Z,5.32
2018-02-10T11:04:17.177Z,5.33
2018-02-10T11:06:43.129Z,5.14
2018-02-10T11:09:09.171Z,5.13
2018-02-10T11:11:35.101Z,5.20
2018-02-10T11:14:01.037Z,5.13
2018-02-10T11:16:26.973Z,5.51
2018-02-10T11:18:52.951Z,5.93
2018-02-10T11:21:19.129Z,6.19
2018-02-10T11:23:45.116Z,6.27
2018-02-10T11:26:11.115Z,5.98
2018-02-10T11:28:37.159Z,5.41
2018-02-10T11:31:03.091Z,5.69
2018-02-10T11:33:29.021Z,5.91
2018-02-10T11:35:55.023Z,5.71
2018-02-10T11:38:21.101Z,5.63
2018-02-10T11:40:47.019Z,5.89
2018-02-10T11:43:12.987Z,6.02
2018-02-10T11:45:38.908Z,5.93
2018-02-10T11:48:04.870Z,5.78
2018-02-10T11:50:30.797Z,5.68
2018-02-10T11:52:56.736Z,5.82
2018-02-10T11:55:22.673Z,5.99
2018-02-10T11:57:48.732Z,6.25
2018-02-10T12:00:14.663Z,6.22
2018-02-10T12:02:40.694Z,6.22
2018-02-10T12:05:06.692Z,5.90
2018-02-10T12:07:32.618Z,5.77
2018-02-10T12:09:58.561Z,5.90
2018-02-10T12:12:24.483Z,5.90
2018-02-10T12:14:50.427Z,6.09
2018-02-10T12:17:16.379Z,5.64
2018-02-10T12:19:42.311Z,6.00
2018-02-10T12:22:08.287Z,6.07
2018-02-10T12:24:34.262Z,6.01
2018-02-10T12:27:00.353Z,5.99
2018-02-10T12:29:26.285Z,6.14
2018-02-10T12:31:52.215Z,6.04
2018-02-10T12:34:18.151Z,5.99
2018-02-10T12:36:44.211Z,5.81
2018-02-10T12:39:10.145Z,5.60
2018-02-10T12:41:36.075Z,5.72
2018-02-10T12:44:02.055Z,5.61
2018-02-10T12:46:27.989Z,5.76
2018-02-10T12:48:53.958Z,5.62
2018-02-10T12:51:19.945Z,5.71
2018-02-10T12:53:45.937Z,5.70
2018-02-10T12:56:11.851Z,5.51
2018-02-10T12:58:37.814Z,5.90
2018-02-10T13:01:03.808Z,6.09
2018-02-10T13:03:29.792Z,5.97
2018-02-10T13:05:55.728Z,5.98
2018-02-10T13:08:21.773Z,5.58
2018-02-10T13:10:47.862Z,5.67
2018-02-10T13:13:14.858Z,5.43
2018-02-10T13:15:40.864Z,5.63
2018-02-10T13:18:06.836Z,5.57
2018-02-10T13:20:33.912Z,5.69
2018-02-10T13:22:59.842Z,5.68
2018-02-10T13:25:25.762Z,5.85
2018-02-10T13:27:51.842Z,5.77
2018-02-10T13:30:17.800Z,5.63
2018-02-10T13:32:43.834Z,5.79
2018-02-10T13:35:09.774Z,5.89
2018-02-10T13:37:35.771Z,5.69
2018-02-10T13:40:01.728Z,5.77
2018-02-10T13:42:27.776Z,5.89
2018-02-10T13:44:53.774Z,5.68
2018-02-10T13:47:19.758Z,5.84
2018-02-10T13:49:45.690Z,5.65
2018-02-10T13:52:11.654Z,5.92
2018-02-10T13:54:37.653Z,5.98
2018-02-10T13:57:03.598Z,6.03
2018-02-10T13:59:29.527Z,6.07
2018-02-10T14:01:55.495Z,6.00
2018-02-10T14:04:21.422Z,6.03
2018-02-10T14:06:47.359Z,5.90
2018-02-10T14:09:13.291Z,5.81
2018-02-10T14:11:39.228Z,6.08
2018-02-10T14:14:05.165Z,6.07
2018-02-10T14:16:31.091Z,6.20
2018-02-10T14:18:57.026Z,6.01
2018-02-10T14:21:22.955Z,6.19
2018-02-10T14:23:48.892Z,6.23
2018-02-10T14:26:14.819Z,6.02
2018-02-10T14:28:40.762Z,6.06
2018-02-10T14:31:06.702Z,6.07
2018-02-10T14:33:32.640Z,6.16
2018-02-10T14:35:58.571Z,5.84
2018-02-10T14:38:24.522Z,5.93
2018-02-10T14:40:50.488Z,5.83
2018-02-10T14:43:16.490Z,5.95
2018-02-10T14:45:42.431Z,6.09
2018-02-10T14:48:08.352Z,5.95
2018-02-10T14:50:34.288Z,6.02
2018-02-10T14:53:00.228Z,5.82
2018-02-10T14:55:26.169Z,5.95
2018-02-10T14:57:52.095Z,5.70
2018-02-10T15:00:18.066Z,6.01
2018-02-10T15:02:44.025Z,5.75
2018-02-10T15:05:09.955Z,5.72
2018-02-10T15:07:35.926Z,5.79
2018-02-10T15:10:01.866Z,5.71
2018-02-10T15:12:27.790Z,5.69
2018-02-10T15:14:53.736Z,5.72
2018-02-10T15:17:19.672Z,5.66
2018-02-10T15:19:45.610Z,5.68
2018-02-10T15:22:11.719Z,5.55
2018-02-10T15:24:37.685Z,5.57
2018-02-10T15:27:03.617Z,5.64
2018-02-10T15:29:29.568Z,5.73
2018-02-10T15:31:55.507Z,5.76
2018-02-10T15:34:21.453Z,5.51
2018-02-10T15:36:47.385Z,5.49
2018-02-10T15:39:13.358Z,5.58
2018-02-10T15:41:39.293Z,5.45
2018-02-10T15:44:05.251Z,5.50
2018-02-10T15:46:31.178Z,5.26
2018-02-10T15:48:57.119Z,5.32
2018-02-10T15:51:23.044Z,5.34
2018-02-10T15:53:49.077Z,5.54
2018-02-10T15:56:15.001Z,5.34
2018-02-10T15:58:40.995Z,5.24
2018-02-10T16:01:06.953Z,5.55
2018-02-10T16:03:32.895Z,5.55
2018-02-10T16:05:58.824Z,5.63
2018-02-10T16:08:24.769Z,5.43
2018-02-10T16:10:50.695Z,5.02
2018-02-10T16:13:16.634Z,5.54
2018-02-10T16:15:42.561Z,5.49
2018-02-10T16:18:08.533Z,5.29
2018-02-10T16:20:34.457Z,5.18
2018-02-10T16:23:00.453Z,5.27
2018-02-10T16:25:26.395Z,5.13
2018-02-10T16:27:52.326Z,5.19
2018-02-10T16:30:18.265Z,5.28
2018-02-10T16:32:44.232Z,5.10
2018-02-10T16:35:10.207Z,5.35
2018-02-10T16:37:36.141Z,5.21
2018-02-10T16:40:02.071Z,4.77
2018-02-10T16:42:28.001Z,5.20
2018-02-10T16:44:53.959Z,5.41
2018-02-10T16:47:19.915Z,5.15
2018-02-10T16:49:45.843Z,5.19
2018-02-10T16:52:11.790Z,5.21
2018-02-10T16:54:37.717Z,5.13
2018-02-10T16:57:03.779Z,5.23
2018-02-10T16:59:29.721Z,5.14
2018-02-10T17:01:55.660Z,5.27
2018-02-10T17:04:21.589Z,5.30
2018-02-10T17:06:47.509Z,5.19
2018-02-10T17:09:13.437Z,5.35
2018-02-10T17:11:39.377Z,5.33
2018-02-10T17:14:05.307Z,5.15
2018-02-10T17:16:31.227Z,5.23
2018-02-10T17:18:57.157Z,5.19
2018-02-10T17:21:23.083Z,4.90
2018-02-10T17:23:49.004Z,5.00
2018-02-10T17:26:14.939Z,5.27
2018-02-10T17:28:40.889Z,5.17
2018-02-10T17:31:06.803Z,4.98
2018-02-10T17:33:32.746Z,4.97
2018-02-10T17:35:58.671Z,4.73
2018-02-10T17:38:24.591Z,4.81
2018-02-10T17:40:50.505Z,4.65
2018-02-10T17:43:16.420Z,4.60
2018-02-10T17:45:42.346Z,4.98
2018-02-10T17:48:08.280Z,4.99
2018-02-10T17:50:34.222Z,4.93
2018-02-10T17:53:00.139Z,4.79
2018-02-10T17:55:26.060Z,4.98
2018-02-10T17:57:52.026Z,4.87
2018-02-10T18:00:17.958Z,4.79
2018-02-10T18:02:43.884Z,4.63
2018-02-10T18:05:09.834Z,4.78
2018-02-10T18:07:35.770Z,4.74
2018-02-10T18:10:01.705Z,4.77
2018-02-10T18:12:27.637Z,4.90
2018-02-10T18:14:53.588Z,4.82
2018-02-10T18:17:19.523Z,4.71
2018-02-10T18:19:45.439Z,4.77
2018-02-10T18:22:11.378Z,4.73
2018-02-10T18:24:37.314Z,4.45
2018-02-10T18:27:03.243Z,4.60
2018-02-10T18:29:29.206Z,4.63
2018-02-10T18:31:55.141Z,4.43
2018-02-10T18:34:21.070Z,4.52
2018-02-10T18:36:46.996Z,4.61
2018-02-10T18:39:12.942Z,4.45
2018-02-10T18:41:38.865Z,4.81
2018-02-10T18:44:04.798Z,4.83
2018-02-10T18:46:30.728Z,4.74
2018-02-10T18:48:56.669Z,4.73
2018-02-10T18:51:22.587Z,4.83
2018-02-10T18:53:48.569Z,4.91
2018-02-10T18:56:14.470Z,4.60
2018-02-10T18:58:40.416Z,4.62
2018-02-10T19:01:06.352Z,4.63
2018-02-10T19:03:32.292Z,4.67
2018-02-10T19:05:58.234Z,4.68
2018-02-10T19:08:24.168Z,4.65
2018-02-10T19:10:50.144Z,5.02
2018-02-10T19:13:16.062Z,4.77
2018-02-10T19:15:42.000Z,4.93
2018-02-10T19:18:07.992Z,4.60
2018-02-10T19:20:34.064Z,4.56
2018-02-10T19:22:59.993Z,4.52
2018-02-10T19:25:25.956Z,4.72
2018-02-10T19:27:51.895Z,4.76
2018-02-10T19:30:17.849Z,4.81
2018-02-10T19:32:43.776Z,4.75
2018-02-10T19:35:09.794Z,4.86
2018-02-10T19:37:35.725Z,4.94
2018-02-10T19:40:01.688Z,4.92
2018-02-10T19:42:27.620Z,5.02
2018-02-10T19:44:53.555Z,4.81
2018-02-10T19:47:19.492Z,4.89
2018-02-10T19:49:45.434Z,4.88
2018-02-10T19:52:11.370Z,4.93
2018-02-10T19:54:37.330Z,5.12
2018-02-10T19:57:03.264Z,5.04
2018-02-10T19:59:29.296Z,4.81
2018-02-10T20:01:55.250Z,5.00
2018-02-10T20:04:21.218Z,4.93
2018-02-10T20:06:47.160Z,5.21
2018-02-10T20:09:13.152Z,5.04
2018-02-10T20:11:39.086Z,4.91
2018-02-10T20:14:05.028Z,5.13
2018-02-10T20:16:30.964Z,5.22
2018-02-10T20:18:56.899Z,5.16
2018-02-10T20:21:22.825Z,4.99
2018-02-10T20:23:48.772Z,4.90
2018-02-10T20:26:14.714Z,5.11
2018-02-10T20:28:40.732Z,4.96
2018-02-10T20:31:06.748Z,5.11
2018-02-10T20:33:32.776Z,5.25
2018-02-10T20:35:58.688Z,5.04
2018-02-10T20:38:24.660Z,5.04
2018-02-10T20:40:50.602Z,4.97
2018-02-10T20:43:16.532Z,4.84
2018-02-10T20:45:42.464Z,4.80
2018-02-10T20:48:08.420Z,4.99
2018-02-10T20:50:34.376Z,5.14
2018-02-10T20:53:00.319Z,4.97
2018-02-10T20:55:26.244Z,5.15
2018-02-10T20:57:52.200Z,4.98
2018-02-10T21:00:18.176Z,4.92
2018-02-10T21:02:44.170Z,4.72
2018-02-10T21:05:10.100Z,5.31
2018-02-10T21:07:36.054Z,4.96
2018-02-10T21:10:01.996Z,5.28
2018-02-10T21:12:27.940Z,5.22
2018-02-10T21:14:53.874Z,5.21
2018-02-10T21:17:19.815Z,5.09
2018-02-10T21:19:45.738Z,4.93
2018-02-10T21:22:12.091Z,5.06
2018-02-10T21:24:38.020Z,5.35
2018-02-10T21:27:03.981Z,5.68
2018-02-10T21:29:29.907Z,5.78
2018-02-10T21:31:55.958Z,5.43
2018-02-10T21:34:21.894Z,5.35
2018-02-10T21:36:47.889Z,5.27
2018-02-10T21:39:13.891Z,5.17
2018-02-10T21:41:40.868Z,5.28
2018-02-10T21:44:06.794Z,5.56
2018-02-10T21:46:32.736Z,5.31
2018-02-10T21:48:58.666Z,5.08
2018-02-10T21:51:24.613Z,4.84
2018-02-10T21:53:50.553Z,4.66
2018-02-10T21:56:16.504Z,4.80
2018-02-10T21:58:42.452Z,4.79
2018-02-10T22:01:08.399Z,4.93
2018-02-10T22:03:34.326Z,4.89
2018-02-10T22:06:00.256Z,4.97
2018-02-10T22:08:26.178Z,4.95
2018-02-10T22:10:52.113Z,5.04
2018-02-10T22:13:18.034Z,5.00
2018-02-10T22:15:43.978Z,5.14
2018-02-10T22:18:09.998Z,5.00
2018-02-10T22:20:35.928Z,4.93
2018-02-10T22:23:01.856Z,4.94
2018-02-10T22:25:27.774Z,4.88
2018-02-10T22:27:53.698Z,4.89
2018-02-10T22:30:19.646Z,5.17
2018-02-10T22:32:45.594Z,4.91
2018-02-10T22:35:11.526Z,4.79
2018-02-10T22:37:37.470Z,4.86
2018-02-10T22:40:03.510Z,5.01
2018-02-10T22:42:29.515Z,5.14
2018-02-10T22:44:55.446Z,5.04
2018-02-10T22:47:21.420Z,5.03
2018-02-10T22:49:47.387Z,5.04
2018-02-10T22:52:13.316Z,5.21
2018-02-10T22:54:39.337Z,5.13
2018-02-10T22:57:05.264Z,5.35
2018-02-10T22:59:31.180Z,5.64
2018-02-10T23:01:57.106Z,5.64
2018-02-10T23:04:23.058Z,5.60
2018-02-10T23:06:49.012Z,5.70
2018-02-10T23:09:14.958Z,5.79
2018-02-10T23:11:40.982Z,5.90
2018-02-10T23:14:06.916Z,6.02
2018-02-10T23:16:32.836Z,6.22
2018-02-10T23:18:58.871Z,5.87
2018-02-10T23:21:24.802Z,6.04
2018-02-10T23:23:50.766Z,5.87
2018-02-10T23:26:16.710Z,5.76
2018-02-10T23:28:42.680Z,5.49
2018-02-10T23:31:08.604Z,5.43
2018-02-10T23:33:34.538Z,5.40
2018-02-10T23:36:00.468Z,5.34
2018-02-10T23:38:26.394Z,5.39
2018-02-10T23:40:52.350Z,5.36
2018-02-10T23:43:18.274Z,5.49
2018-02-10T23:45:44.224Z,5.70
2018-02-10T23:48:10.139Z,5.38
2018-02-10T23:50:36.064Z,5.36
2018-02-10T23:53:01.985Z,5.41
2018-02-10T23:55:27.910Z,5.41
2018-02-10T23:57:53.840Z,5.43
